ETSBCYYR

Guest
Details From ETSB - Buchel
To CYYR - Goose Bay
Flight Number -
Tags Generated
Created
Modified
Stats Distance 2,422 nm / 4,486 km
Max Altitude 0 ft / 0 m
Waypoints 7
Social Downloads 0
Likes 0
Share VATSIM

Download

Looking for another format? Having issues loading an existing format? Contact us
Advertisement - Login to hide

Notes

Generated

Route

ETSB RINIS ASNIP BEL90 56N15 BIMVI CYYR

ID Type Via Altitude Latitude Longitude Leg Dist Tot Dist Heading (true) Name
O ETSB APT - 0 ft / 0 m 50.16397˚ 7.05471˚ - 0 nm - -
RINIS FIX - 0 ft / 0 m 51.90833˚ 2.32250˚ 207 nm 207 nm 302° / 299° -
ASNIP FIX - 0 ft / 0 m 53.47861˚ -2.90722˚ 212 nm 419 nm 298° / 294° -
BEL90 FIX - 0 ft / 0 m 54.90556˚ -8.80250˚ 224 nm 643 nm 295° / 290° -
56N15 FIX - 0 ft / 0 m 56.00000˚ -15.00000˚ 220 nm 864 nm 290° / 285° -
BIMVI FIX - 0 ft / 0 m 53.36501˚ -60.29979˚ 1552 nm 2416 nm 283° / 246° -
O CYYR APT - 0 ft / 0 m 53.33389˚ -60.43639˚ 5 nm 2421 nm 249° / 249° -

Altitude Profile

Advertisement - Login to hide

Weather


0- 5 10 15 20 25 30 35+ Temperature / ° C

Clouds and Precipitation
Forecast for 2017-12-11 06:00 UTC. Updated an hour ago

Ground ~20,000 ft ~40,000 ft Winds

ETSB

Details ICAO ETSB
Name BUCHEL
Region Germany - Military
Timezone Europe/Berlin (UTC+1.0)
Stats Elevation 1,568 ft / 478 m (AMSL)
Location 50.173808° 7.063321°
Runways 1
Magnetic Variation 1.920° E

METAR

ETSB 110120Z AUTO 25006KT 0200 // ////// 03/02 Q0983 ///

Decode

TAF

Not found

Departure Runways

ID Width Length Bearing (true) Bearing (mag) Surface Threshold Offset Overrun Length
03 148 ft / 45 m 8,232 ft / 2,509 m 29.26° 27.34° Asphalt 0 ft / 0 m 902 ft / 275 m
21 148 ft / 45 m 8,232 ft / 2,509 m 209.28° 207.36° Asphalt 0 ft / 0 m 899 ft / 274 m

CYYR

Details ICAO CYYR (YYR)
Name Goose Bay
Region Canada
Timezone America/Goose_Bay (UTC-4.0)
Stats Elevation 160 ft / 49 m (AMSL)
Location 53.318820° -60.423890°
Runways 2
Magnetic Variation 20.965° W

METAR

CYYR 110200Z 28015G20KT 3SM -SN DRSN SCT020 BKN029 OVC045 M09/M11 A2926 RMK SC3SC4SC1 SLP913

Decode

TAF

TAF AMD CYYR 110123Z 1101/1124 27015KT 1SM -SN OVC015 TEMPO 1101/1103 6SM -SN OVC025 FM110300 27010KT 3SM -SN OVC020 TEMPO 1103/1107 6SM -SN OVC025 FM110700 24010KT P6SM -SN OVC030 FM110900 24010KT P6SM BKN060 FM111400 25015G25KT P6SM FEW030 BECMG 1120/1122 24010KT RMK NXT FCST BY 110600Z

Decode

Destination Runways

ID Width Length Bearing (true) Bearing (mag) Surface Threshold Offset Overrun Length
08 209 ft / 64 m 11,055 ft / 3,369 m 54.70° 75.67° Asphalt 0 ft / 0 m 1,000 ft / 305 m
16 200 ft / 61 m 9,515 ft / 2,900 m 132.96° 153.93° Asphalt 0 ft / 0 m 0 ft / 0 m
26 209 ft / 64 m 11,055 ft / 3,369 m 234.73° 255.70° Asphalt 0 ft / 0 m 1,000 ft / 305 m
34 200 ft / 61 m 9,515 ft / 2,900 m 312.99° 333.96° Asphalt 0 ft / 0 m 500 ft / 152 m

Popular Alternatives